sensor_id;sensor_type;location;lat;lon;timestamp;P1;durP1;ratioP1;P2;durP2;ratioP2
63284;SDS011;49409;55.708;37.522;2022-07-09T00:01:35;8.98;;;4.90;;
63284;SDS011;49409;55.708;37.522;2022-07-09T00:04:00;7.25;;;4.40;;
63284;SDS011;49409;55.708;37.522;2022-07-09T00:06:26;9.52;;;5.38;;
63284;SDS011;49409;55.708;37.522;2022-07-09T00:08:51;6.10;;;4.45;;
63284;SDS011;49409;55.708;37.522;2022-07-09T00:11:17;6.28;;;4.60;;
63284;SDS011;49409;55.708;37.522;2022-07-09T00:13:42;9.10;;;5.10;;
63284;SDS011;49409;55.708;37.522;2022-07-09T00:16:08;6.40;;;4.68;;
63284;SDS011;49409;55.708;37.522;2022-07-09T00:18:33;10.25;;;4.95;;
63284;SDS011;49409;55.708;37.522;2022-07-09T00:20:59;9.32;;;4.88;;
63284;SDS011;49409;55.708;37.522;2022-07-09T00:23:24;6.43;;;4.43;;
63284;SDS011;49409;55.708;37.522;2022-07-09T00:25:50;6.38;;;4.18;;
63284;SDS011;49409;55.708;37.522;2022-07-09T00:28:17;7.00;;;4.80;;
63284;SDS011;49409;55.708;37.522;2022-07-09T00:30:43;7.18;;;4.85;;
63284;SDS011;49409;55.708;37.522;2022-07-09T00:33:09;9.10;;;4.90;;
63284;SDS011;49409;55.708;37.522;2022-07-09T00:35:34;6.88;;;4.45;;
63284;SDS011;49409;55.708;37.522;2022-07-09T00:38:00;7.88;;;4.82;;
63284;SDS011;49409;55.708;37.522;2022-07-09T00:40:25;7.93;;;4.80;;
63284;SDS011;49409;55.708;37.522;2022-07-09T00:42:51;8.63;;;4.90;;
63284;SDS011;49409;55.708;37.522;2022-07-09T00:45:16;8.40;;;5.20;;
63284;SDS011;49409;55.708;37.522;2022-07-09T00:47:45;8.18;;;4.55;;
63284;SDS011;49409;55.708;37.522;2022-07-09T00:50:10;7.65;;;4.70;;
63284;SDS011;49409;55.708;37.522;2022-07-09T00:52:37;8.90;;;5.32;;
63284;SDS011;49409;55.708;37.522;2022-07-09T00:55:03;8.73;;;4.85;;
63284;SDS011;49409;55.708;37.522;2022-07-09T00:57:31;6.90;;;4.82;;
63284;SDS011;49409;55.708;37.522;2022-07-09T00:59:58;9.02;;;5.47;;
63284;SDS011;49409;55.708;37.522;2022-07-09T01:02:25;7.97;;;5.30;;
63284;SDS011;49409;55.708;37.522;2022-07-09T01:04:51;6.78;;;4.70;;
63284;SDS011;49409;55.708;37.522;2022-07-09T01:07:16;7.50;;;5.22;;
63284;SDS011;49409;55.708;37.522;2022-07-09T01:09:42;7.20;;;5.03;;
63284;SDS011;49409;55.708;37.522;2022-07-09T01:12:08;6.75;;;5.05;;
63284;SDS011;49409;55.708;37.522;2022-07-09T01:14:33;7.18;;;4.57;;
63284;SDS011;49409;55.708;37.522;2022-07-09T01:17:03;8.98;;;5.00;;
63284;SDS011;49409;55.708;37.522;2022-07-09T01:19:30;8.20;;;4.97;;
63284;SDS011;49409;55.708;37.522;2022-07-09T01:21:57;8.65;;;5.32;;
63284;SDS011;49409;55.708;37.522;2022-07-09T01:24:24;11.35;;;5.35;;
63284;SDS011;49409;55.708;37.522;2022-07-09T01:26:51;6.32;;;4.70;;
63284;SDS011;49409;55.708;37.522;2022-07-09T01:29:17;7.72;;;5.50;;
63284;SDS011;49409;55.708;37.522;2022-07-09T01:31:42;7.63;;;5.00;;
63284;SDS011;49409;55.708;37.522;2022-07-09T01:34:08;8.05;;;5.03;;
63284;SDS011;49409;55.708;37.522;2022-07-09T01:36:34;8.43;;;5.10;;
63284;SDS011;49409;55.708;37.522;2022-07-09T01:38:59;7.10;;;5.22;;
63284;SDS011;49409;55.708;37.522;2022-07-09T01:41:25;7.32;;;4.75;;
63284;SDS011;49409;55.708;37.522;2022-07-09T01:43:50;6.97;;;5.35;;
63284;SDS011;49409;55.708;37.522;2022-07-09T01:46:16;9.75;;;5.20;;
63284;SDS011;49409;55.708;37.522;2022-07-09T01:48:41;6.85;;;4.55;;
63284;SDS011;49409;55.708;37.522;2022-07-09T01:51:08;8.95;;;5.03;;
63284;SDS011;49409;55.708;37.522;2022-07-09T01:53:36;7.88;;;5.30;;
63284;SDS011;49409;55.708;37.522;2022-07-09T01:56:05;6.97;;;4.60;;
63284;SDS011;49409;55.708;37.522;2022-07-09T01:58:32;8.38;;;5.10;;
63284;SDS011;49409;55.708;37.522;2022-07-09T02:00:58;7.90;;;5.05;;
63284;SDS011;49409;55.708;37.522;2022-07-09T02:03:24;8.35;;;4.88;;
63284;SDS011;49409;55.708;37.522;2022-07-09T02:05:49;7.80;;;4.93;;
63284;SDS011;49409;55.708;37.522;2022-07-09T02:08:15;8.70;;;5.32;;
63284;SDS011;49409;55.708;37.522;2022-07-09T02:10:40;9.75;;;5.72;;
63284;SDS011;49409;55.708;37.522;2022-07-09T02:13:06;7.30;;;4.95;;
63284;SDS011;49409;55.708;37.522;2022-07-09T02:15:32;7.95;;;4.93;;
63284;SDS011;49409;55.708;37.522;2022-07-09T02:17:57;8.02;;;5.40;;
63284;SDS011;49409;55.708;37.522;2022-07-09T02:20:24;7.65;;;5.18;;
63284;SDS011;49409;55.708;37.522;2022-07-09T02:22:50;8.82;;;5.25;;
63284;SDS011;49409;55.708;37.522;2022-07-09T02:25:15;7.68;;;5.22;;
63284;SDS011;49409;55.708;37.522;2022-07-09T02:27:41;8.77;;;5.45;;
63284;SDS011;49409;55.708;37.522;2022-07-09T02:30:07;9.38;;;5.22;;
63284;SDS011;49409;55.708;37.522;2022-07-09T02:32:32;9.25;;;5.57;;
63284;SDS011;49409;55.708;37.522;2022-07-09T02:34:58;9.52;;;4.97;;
63284;SDS011;49409;55.708;37.522;2022-07-09T02:37:24;8.60;;;5.25;;
63284;SDS011;49409;55.708;37.522;2022-07-09T02:39:49;9.10;;;5.55;;
63284;SDS011;49409;55.708;37.522;2022-07-09T02:42:15;8.20;;;5.30;;
63284;SDS011;49409;55.708;37.522;2022-07-09T02:44:40;7.13;;;4.88;;
63284;SDS011;49409;55.708;37.522;2022-07-09T02:47:08;6.90;;;5.30;;
63284;SDS011;49409;55.708;37.522;2022-07-09T02:49:34;7.05;;;4.60;;
63284;SDS011;49409;55.708;37.522;2022-07-09T02:51:59;10.25;;;4.85;;
63284;SDS011;49409;55.708;37.522;2022-07-09T02:54:26;9.00;;;5.40;;
63284;SDS011;49409;55.708;37.522;2022-07-09T02:56:55;8.85;;;5.25;;
63284;SDS011;49409;55.708;37.522;2022-07-09T02:59:20;10.48;;;5.63;;
63284;SDS011;49409;55.708;37.522;2022-07-09T03:01:46;8.18;;;5.10;;
63284;SDS011;49409;55.708;37.522;2022-07-09T03:04:12;7.40;;;5.07;;
63284;SDS011;49409;55.708;37.522;2022-07-09T03:06:38;7.25;;;5.20;;
63284;SDS011;49409;55.708;37.522;2022-07-09T03:09:03;9.02;;;5.68;;
63284;SDS011;49409;55.708;37.522;2022-07-09T03:11:29;8.50;;;5.63;;
63284;SDS011;49409;55.708;37.522;2022-07-09T03:13:55;10.27;;;5.22;;
63284;SDS011;49409;55.708;37.522;2022-07-09T03:16:20;8.27;;;5.72;;
63284;SDS011;49409;55.708;37.522;2022-07-09T03:18:46;8.60;;;5.18;;
63284;SDS011;49409;55.708;37.522;2022-07-09T03:21:11;9.98;;;5.70;;
63284;SDS011;49409;55.708;37.522;2022-07-09T03:23:37;8.82;;;5.97;;
63284;SDS011;49409;55.708;37.522;2022-07-09T03:26:06;8.18;;;5.65;;
63284;SDS011;49409;55.708;37.522;2022-07-09T03:28:32;11.65;;;6.82;;
63284;SDS011;49409;55.708;37.522;2022-07-09T03:30:58;8.68;;;5.90;;
63284;SDS011;49409;55.708;37.522;2022-07-09T03:33:24;10.77;;;7.25;;
63284;SDS011;49409;55.708;37.522;2022-07-09T03:35:50;10.43;;;7.20;;
63284;SDS011;49409;55.708;37.522;2022-07-09T03:38:15;12.40;;;8.43;;
63284;SDS011;49409;55.708;37.522;2022-07-09T03:40:41;10.40;;;7.80;;
63284;SDS011;49409;55.708;37.522;2022-07-09T03:43:06;14.50;;;8.75;;
63284;SDS011;49409;55.708;37.522;2022-07-09T03:45:32;10.80;;;7.68;;
63284;SDS011;49409;55.708;37.522;2022-07-09T03:47:57;12.35;;;7.07;;
63284;SDS011;49409;55.708;37.522;2022-07-09T03:50:23;11.50;;;8.02;;
63284;SDS011;49409;55.708;37.522;2022-07-09T03:52:48;14.95;;;8.85;;
63284;SDS011;49409;55.708;37.522;2022-07-09T03:55:14;14.70;;;8.98;;
63284;SDS011;49409;55.708;37.522;2022-07-09T03:57:40;14.32;;;8.73;;
63284;SDS011;49409;55.708;37.522;2022-07-09T04:00:06;10.82;;;8.73;;
63284;SDS011;49409;55.708;37.522;2022-07-09T04:02:32;13.57;;;8.23;;
63284;SDS011;49409;55.708;37.522;2022-07-09T04:04:58;14.43;;;8.30;;
63284;SDS011;49409;55.708;37.522;2022-07-09T04:07:24;12.25;;;8.38;;
63284;SDS011;49409;55.708;37.522;2022-07-09T04:09:52;13.85;;;9.93;;
63284;SDS011;49409;55.708;37.522;2022-07-09T04:12:18;15.05;;;9.80;;
63284;SDS011;49409;55.708;37.522;2022-07-09T04:14:45;15.50;;;10.18;;
63284;SDS011;49409;55.708;37.522;2022-07-09T04:17:10;14.95;;;10.43;;
63284;SDS011;49409;55.708;37.522;2022-07-09T04:19:36;13.50;;;10.32;;
63284;SDS011;49409;55.708;37.522;2022-07-09T04:22:01;16.42;;;10.25;;
63284;SDS011;49409;55.708;37.522;2022-07-09T04:24:27;16.60;;;10.02;;
63284;SDS011;49409;55.708;37.522;2022-07-09T04:26:53;16.00;;;10.15;;
63284;SDS011;49409;55.708;37.522;2022-07-09T04:29:19;12.68;;;9.30;;
63284;SDS011;49409;55.708;37.522;2022-07-09T04:31:44;14.63;;;10.15;;
63284;SDS011;49409;55.708;37.522;2022-07-09T04:34:10;16.33;;;9.60;;
63284;SDS011;49409;55.708;37.522;2022-07-09T04:36:35;14.43;;;8.60;;
63284;SDS011;49409;55.708;37.522;2022-07-09T04:39:01;12.30;;;8.50;;
63284;SDS011;49409;55.708;37.522;2022-07-09T04:41:26;11.85;;;7.85;;
63284;SDS011;49409;55.708;37.522;2022-07-09T04:43:53;8.60;;;6.57;;
63284;SDS011;49409;55.708;37.522;2022-07-09T04:46:19;9.63;;;6.47;;
63284;SDS011;49409;55.708;37.522;2022-07-09T04:48:46;11.57;;;7.00;;
63284;SDS011;49409;55.708;37.522;2022-07-09T04:51:12;8.63;;;6.43;;
63284;SDS011;49409;55.708;37.522;2022-07-09T04:53:38;8.68;;;6.95;;
63284;SDS011;49409;55.708;37.522;2022-07-09T04:56:03;11.23;;;6.90;;
63284;SDS011;49409;55.708;37.522;2022-07-09T04:58:29;6.40;;;4.60;;
63284;SDS011;49409;55.708;37.522;2022-07-09T05:00:55;10.00;;;5.35;;
63284;SDS011;49409;55.708;37.522;2022-07-09T05:03:20;8.38;;;5.75;;
63284;SDS011;49409;55.708;37.522;2022-07-09T05:05:46;7.53;;;4.72;;
63284;SDS011;49409;55.708;37.522;2022-07-09T05:08:11;6.20;;;4.10;;
63284;SDS011;49409;55.708;37.522;2022-07-09T05:10:37;7.80;;;4.32;;
63284;SDS011;49409;55.708;37.522;2022-07-09T05:13:03;4.93;;;3.60;;
63284;SDS011;49409;55.708;37.522;2022-07-09T05:15:28;7.93;;;4.25;;
63284;SDS011;49409;55.708;37.522;2022-07-09T05:17:57;5.65;;;3.60;;
63284;SDS011;49409;55.708;37.522;2022-07-09T05:20:22;8.15;;;4.30;;
63284;SDS011;49409;55.708;37.522;2022-07-09T05:22:49;7.13;;;3.95;;
63284;SDS011;49409;55.708;37.522;2022-07-09T05:25:14;4.65;;;3.25;;
63284;SDS011;49409;55.708;37.522;2022-07-09T05:27:43;4.82;;;3.30;;
63284;SDS011;49409;55.708;37.522;2022-07-09T05:30:10;4.60;;;3.72;;
63284;SDS011;49409;55.708;37.522;2022-07-09T05:32:38;5.30;;;3.42;;
63284;SDS011;49409;55.708;37.522;2022-07-09T05:35:03;4.97;;;3.22;;
63284;SDS011;49409;55.708;37.522;2022-07-09T05:37:29;4.75;;;3.00;;
63284;SDS011;49409;55.708;37.522;2022-07-09T05:39:58;6.10;;;3.55;;
63284;SDS011;49409;55.708;37.522;2022-07-09T05:42:23;5.55;;;3.38;;
63284;SDS011;49409;55.708;37.522;2022-07-09T05:44:49;5.00;;;2.72;;
63284;SDS011;49409;55.708;37.522;2022-07-09T05:47:15;4.07;;;2.33;;
63284;SDS011;49409;55.708;37.522;2022-07-09T05:49:40;4.20;;;2.58;;
63284;SDS011;49409;55.708;37.522;2022-07-09T05:52:06;3.95;;;2.65;;
63284;SDS011;49409;55.708;37.522;2022-07-09T05:54:32;5.38;;;2.80;;
63284;SDS011;49409;55.708;37.522;2022-07-09T05:56:58;4.57;;;2.67;;
63284;SDS011;49409;55.708;37.522;2022-07-09T05:59:23;4.47;;;2.85;;
63284;SDS011;49409;55.708;37.522;2022-07-09T06:01:49;3.63;;;3.10;;
63284;SDS011;49409;55.708;37.522;2022-07-09T06:04:14;4.72;;;2.80;;
63284;SDS011;49409;55.708;37.522;2022-07-09T06:06:40;7.22;;;3.30;;
63284;SDS011;49409;55.708;37.522;2022-07-09T06:09:06;5.78;;;3.38;;
63284;SDS011;49409;55.708;37.522;2022-07-09T06:11:32;5.78;;;3.25;;
63284;SDS011;49409;55.708;37.522;2022-07-09T06:13:58;4.35;;;2.90;;
63284;SDS011;49409;55.708;37.522;2022-07-09T06:16:23;4.47;;;2.70;;
63284;SDS011;49409;55.708;37.522;2022-07-09T06:18:49;4.85;;;2.60;;
63284;SDS011;49409;55.708;37.522;2022-07-09T06:21:14;2.85;;;2.00;;
63284;SDS011;49409;55.708;37.522;2022-07-09T06:23:40;2.75;;;1.90;;
63284;SDS011;49409;55.708;37.522;2022-07-09T06:26:05;2.85;;;2.25;;
63284;SDS011;49409;55.708;37.522;2022-07-09T06:28:31;4.63;;;2.50;;
63284;SDS011;49409;55.708;37.522;2022-07-09T06:30:57;4.70;;;2.67;;
63284;SDS011;49409;55.708;37.522;2022-07-09T06:33:22;4.32;;;2.60;;
63284;SDS011;49409;55.708;37.522;2022-07-09T06:35:48;4.50;;;2.60;;
63284;SDS011;49409;55.708;37.522;2022-07-09T06:38:13;4.70;;;3.13;;
63284;SDS011;49409;55.708;37.522;2022-07-09T06:40:39;4.03;;;2.58;;
63284;SDS011;49409;55.708;37.522;2022-07-09T06:43:04;3.92;;;2.80;;
63284;SDS011;49409;55.708;37.522;2022-07-09T06:45:30;4.68;;;3.25;;
63284;SDS011;49409;55.708;37.522;2022-07-09T06:47:55;4.25;;;3.10;;
63284;SDS011;49409;55.708;37.522;2022-07-09T06:50:21;4.88;;;2.92;;
63284;SDS011;49409;55.708;37.522;2022-07-09T06:52:46;3.38;;;2.65;;
63284;SDS011;49409;55.708;37.522;2022-07-09T06:55:12;4.15;;;2.90;;
63284;SDS011;49409;55.708;37.522;2022-07-09T06:57:37;4.22;;;2.60;;
63284;SDS011;49409;55.708;37.522;2022-07-09T07:00:06;3.05;;;2.40;;
63284;SDS011;49409;55.708;37.522;2022-07-09T07:02:32;5.80;;;2.67;;
63284;SDS011;49409;55.708;37.522;2022-07-09T07:04:58;3.67;;;2.97;;
63284;SDS011;49409;55.708;37.522;2022-07-09T07:07:23;4.65;;;2.53;;
63284;SDS011;49409;55.708;37.522;2022-07-09T07:09:49;3.47;;;2.60;;
63284;SDS011;49409;55.708;37.522;2022-07-09T07:12:14;4.10;;;2.63;;
63284;SDS011;49409;55.708;37.522;2022-07-09T07:14:40;4.85;;;2.70;;
63284;SDS011;49409;55.708;37.522;2022-07-09T07:17:06;3.72;;;2.63;;
63284;SDS011;49409;55.708;37.522;2022-07-09T07:19:31;4.93;;;2.83;;
63284;SDS011;49409;55.708;37.522;2022-07-09T07:21:57;3.00;;;2.45;;
63284;SDS011;49409;55.708;37.522;2022-07-09T07:27:32;4.43;;;2.72;;
63284;SDS011;49409;55.708;37.522;2022-07-09T07:29:57;4.15;;;2.58;;
63284;SDS011;49409;55.708;37.522;2022-07-09T07:32:23;7.82;;;3.00;;
63284;SDS011;49409;55.708;37.522;2022-07-09T07:34:48;5.30;;;2.80;;
63284;SDS011;49409;55.708;37.522;2022-07-09T07:37:14;5.13;;;2.75;;
63284;SDS011;49409;55.708;37.522;2022-07-09T07:39:39;4.57;;;2.75;;
63284;SDS011;49409;55.708;37.522;2022-07-09T07:42:05;3.95;;;2.65;;
63284;SDS011;49409;55.708;37.522;2022-07-09T07:44:32;5.75;;;2.97;;
63284;SDS011;49409;55.708;37.522;2022-07-09T07:46:58;3.05;;;2.60;;
63284;SDS011;49409;55.708;37.522;2022-07-09T07:49:23;6.05;;;2.75;;
63284;SDS011;49409;55.708;37.522;2022-07-09T07:51:49;4.22;;;2.80;;
63284;SDS011;49409;55.708;37.522;2022-07-09T07:54:15;4.68;;;2.92;;
63284;SDS011;49409;55.708;37.522;2022-07-09T07:56:41;4.30;;;3.00;;
63284;SDS011;49409;55.708;37.522;2022-07-09T07:59:06;4.22;;;2.88;;
63284;SDS011;49409;55.708;37.522;2022-07-09T08:01:32;6.18;;;3.50;;
63284;SDS011;49409;55.708;37.522;2022-07-09T08:03:58;5.78;;;3.20;;
63284;SDS011;49409;55.708;37.522;2022-07-09T08:06:23;9.40;;;3.22;;
63284;SDS011;49409;55.708;37.522;2022-07-09T08:08:49;6.18;;;3.58;;
63284;SDS011;49409;55.708;37.522;2022-07-09T08:11:15;5.50;;;3.20;;
63284;SDS011;49409;55.708;37.522;2022-07-09T08:13:40;5.93;;;3.78;;
63284;SDS011;49409;55.708;37.522;2022-07-09T08:16:06;6.50;;;3.20;;
63284;SDS011;49409;55.708;37.522;2022-07-09T08:18:32;7.82;;;3.30;;
63284;SDS011;49409;55.708;37.522;2022-07-09T08:20:58;6.28;;;3.65;;
63284;SDS011;49409;55.708;37.522;2022-07-09T08:23:23;5.22;;;3.60;;
63284;SDS011;49409;55.708;37.522;2022-07-09T08:25:49;5.03;;;3.80;;
63284;SDS011;49409;55.708;37.522;2022-07-09T08:28:15;5.45;;;3.45;;
63284;SDS011;49409;55.708;37.522;2022-07-09T08:30:41;6.40;;;3.60;;
63284;SDS011;49409;55.708;37.522;2022-07-09T08:33:07;4.85;;;3.40;;
63284;SDS011;49409;55.708;37.522;2022-07-09T08:35:33;5.32;;;3.70;;
63284;SDS011;49409;55.708;37.522;2022-07-09T08:37:58;7.30;;;3.80;;
63284;SDS011;49409;55.708;37.522;2022-07-09T08:40:27;8.40;;;3.95;;
63284;SDS011;49409;55.708;37.522;2022-07-09T08:42:53;5.13;;;3.85;;
63284;SDS011;49409;55.708;37.522;2022-07-09T08:45:19;6.22;;;3.80;;
63284;SDS011;49409;55.708;37.522;2022-07-09T08:47:46;6.32;;;3.58;;
63284;SDS011;49409;55.708;37.522;2022-07-09T08:50:12;7.05;;;3.58;;
63284;SDS011;49409;55.708;37.522;2022-07-09T08:52:39;7.13;;;4.18;;
63284;SDS011;49409;55.708;37.522;2022-07-09T08:55:05;6.80;;;4.28;;
63284;SDS011;49409;55.708;37.522;2022-07-09T08:57:33;6.05;;;3.72;;
63284;SDS011;49409;55.708;37.522;2022-07-09T09:00:03;6.15;;;3.92;;
63284;SDS011;49409;55.708;37.522;2022-07-09T09:05:01;5.55;;;3.65;;
63284;SDS011;49409;55.708;37.522;2022-07-09T09:07:32;5.20;;;3.53;;
63284;SDS011;49409;55.708;37.522;2022-07-09T09:09:57;5.82;;;4.05;;
63284;SDS011;49409;55.708;37.522;2022-07-09T09:12:27;6.20;;;4.30;;
63284;SDS011;49409;55.708;37.522;2022-07-09T09:14:53;6.45;;;4.55;;
63284;SDS011;49409;55.708;37.522;2022-07-09T09:17:19;6.60;;;4.30;;
63284;SDS011;49409;55.708;37.522;2022-07-09T09:19:45;7.60;;;4.57;;
63284;SDS011;49409;55.708;37.522;2022-07-09T09:22:14;5.90;;;4.05;;
63284;SDS011;49409;55.708;37.522;2022-07-09T09:24:40;5.40;;;3.83;;
63284;SDS011;49409;55.708;37.522;2022-07-09T09:27:07;6.43;;;3.85;;
63284;SDS011;49409;55.708;37.522;2022-07-09T09:29:33;5.22;;;3.78;;
63284;SDS011;49409;55.708;37.522;2022-07-09T09:32:10;6.60;;;4.32;;
63284;SDS011;49409;55.708;37.522;2022-07-09T09:34:37;6.05;;;3.67;;
63284;SDS011;49409;55.708;37.522;2022-07-09T09:37:06;5.70;;;3.25;;
63284;SDS011;49409;55.708;37.522;2022-07-09T09:39:33;5.65;;;3.80;;
63284;SDS011;49409;55.708;37.522;2022-07-09T09:42:01;5.93;;;3.28;;
63284;SDS011;49409;55.708;37.522;2022-07-09T09:44:30;6.60;;;4.10;;
63284;SDS011;49409;55.708;37.522;2022-07-09T09:47:06;5.88;;;3.42;;
63284;SDS011;49409;55.708;37.522;2022-07-09T09:49:37;7.53;;;4.47;;
63284;SDS011;49409;55.708;37.522;2022-07-09T09:52:04;5.25;;;3.63;;
63284;SDS011;49409;55.708;37.522;2022-07-09T09:54:34;5.80;;;3.13;;
63284;SDS011;49409;55.708;37.522;2022-07-09T09:57:04;5.95;;;3.53;;
63284;SDS011;49409;55.708;37.522;2022-07-09T09:59:33;5.38;;;3.38;;
63284;SDS011;49409;55.708;37.522;2022-07-09T10:02:02;6.03;;;3.58;;
63284;SDS011;49409;55.708;37.522;2022-07-09T10:04:31;5.63;;;3.70;;
63284;SDS011;49409;55.708;37.522;2022-07-09T10:06:57;5.30;;;3.55;;
63284;SDS011;49409;55.708;37.522;2022-07-09T10:09:23;5.50;;;3.55;;
63284;SDS011;49409;55.708;37.522;2022-07-09T10:11:48;5.57;;;3.78;;
63284;SDS011;49409;55.708;37.522;2022-07-09T10:14:17;5.68;;;3.70;;
63284;SDS011;49409;55.708;37.522;2022-07-09T10:16:54;6.95;;;3.78;;
63284;SDS011;49409;55.708;37.522;2022-07-09T10:19:29;5.57;;;3.85;;
63284;SDS011;49409;55.708;37.522;2022-07-09T10:21:58;7.75;;;4.65;;
63284;SDS011;49409;55.708;37.522;2022-07-09T10:26:51;6.18;;;3.92;;
63284;SDS011;49409;55.708;37.522;2022-07-09T10:29:18;7.18;;;3.70;;
63284;SDS011;49409;55.708;37.522;2022-07-09T10:31:46;7.13;;;4.18;;
63284;SDS011;49409;55.708;37.522;2022-07-09T10:34:21;6.25;;;3.88;;
63284;SDS011;49409;55.708;37.522;2022-07-09T10:37:04;6.15;;;4.57;;
63284;SDS011;49409;55.708;37.522;2022-07-09T10:39:30;5.50;;;4.13;;
63284;SDS011;49409;55.708;37.522;2022-07-09T10:44:39;6.60;;;4.15;;
63284;SDS011;49409;55.708;37.522;2022-07-09T10:47:05;6.78;;;4.65;;
63284;SDS011;49409;55.708;37.522;2022-07-09T10:49:35;8.45;;;4.75;;
63284;SDS011;49409;55.708;37.522;2022-07-09T10:52:02;8.50;;;5.65;;
63284;SDS011;49409;55.708;37.522;2022-07-09T10:54:29;8.88;;;5.25;;
63284;SDS011;49409;55.708;37.522;2022-07-09T10:56:55;7.20;;;5.57;;
63284;SDS011;49409;55.708;37.522;2022-07-09T10:59:22;8.13;;;5.57;;
63284;SDS011;49409;55.708;37.522;2022-07-09T11:01:48;8.43;;;5.88;;
63284;SDS011;49409;55.708;37.522;2022-07-09T11:04:28;7.75;;;5.43;;
63284;SDS011;49409;55.708;37.522;2022-07-09T11:06:54;9.52;;;4.63;;
63284;SDS011;49409;55.708;37.522;2022-07-09T11:09:20;7.05;;;4.32;;
63284;SDS011;49409;55.708;37.522;2022-07-09T11:11:46;8.23;;;4.57;;
63284;SDS011;49409;55.708;37.522;2022-07-09T11:14:12;6.95;;;5.28;;
63284;SDS011;49409;55.708;37.522;2022-07-09T11:16:38;7.03;;;4.47;;
63284;SDS011;49409;55.708;37.522;2022-07-09T11:19:17;6.78;;;4.40;;
63284;SDS011;49409;55.708;37.522;2022-07-09T11:22:02;7.40;;;4.10;;
63284;SDS011;49409;55.708;37.522;2022-07-09T11:24:28;7.75;;;3.83;;
63284;SDS011;49409;55.708;37.522;2022-07-09T11:26:54;6.25;;;3.35;;
63284;SDS011;49409;55.708;37.522;2022-07-09T11:29:20;6.45;;;3.40;;
63284;SDS011;49409;55.708;37.522;2022-07-09T11:31:47;5.70;;;3.05;;
63284;SDS011;49409;55.708;37.522;2022-07-09T11:34:14;5.53;;;3.00;;
63284;SDS011;49409;55.708;37.522;2022-07-09T11:36:47;3.50;;;2.60;;
63284;SDS011;49409;55.708;37.522;2022-07-09T11:41:52;4.60;;;2.65;;
63284;SDS011;49409;55.708;37.522;2022-07-09T11:44:22;4.72;;;2.55;;
63284;SDS011;49409;55.708;37.522;2022-07-09T11:49:48;5.05;;;2.95;;
63284;SDS011;49409;55.708;37.522;2022-07-09T11:54:58;5.15;;;3.50;;
63284;SDS011;49409;55.708;37.522;2022-07-09T11:57:29;4.90;;;2.95;;
63284;SDS011;49409;55.708;37.522;2022-07-09T11:59:55;6.35;;;3.65;;
63284;SDS011;49409;55.708;37.522;2022-07-09T12:02:31;5.35;;;4.00;;
63284;SDS011;49409;55.708;37.522;2022-07-09T12:05:02;7.10;;;4.65;;
63284;SDS011;49409;55.708;37.522;2022-07-09T12:07:29;6.15;;;4.40;;
63284;SDS011;49409;55.708;37.522;2022-07-09T12:10:00;6.70;;;4.18;;
63284;SDS011;49409;55.708;37.522;2022-07-09T12:12:33;6.07;;;4.50;;
63284;SDS011;49409;55.708;37.522;2022-07-09T12:14:59;8.07;;;4.93;;
63284;SDS011;49409;55.708;37.522;2022-07-09T12:17:26;9.10;;;5.28;;
63284;SDS011;49409;55.708;37.522;2022-07-09T12:19:54;8.93;;;5.70;;
63284;SDS011;49409;55.708;37.522;2022-07-09T12:22:20;9.98;;;5.78;;
63284;SDS011;49409;55.708;37.522;2022-07-09T12:24:48;7.38;;;4.45;;
63284;SDS011;49409;55.708;37.522;2022-07-09T12:27:15;6.80;;;5.00;;
63284;SDS011;49409;55.708;37.522;2022-07-09T12:29:41;7.95;;;5.70;;
63284;SDS011;49409;55.708;37.522;2022-07-09T12:32:07;8.15;;;5.72;;
63284;SDS011;49409;55.708;37.522;2022-07-09T12:34:32;8.27;;;5.38;;
63284;SDS011;49409;55.708;37.522;2022-07-09T12:36:58;8.38;;;5.95;;
63284;SDS011;49409;55.708;37.522;2022-07-09T12:39:24;7.18;;;4.80;;
63284;SDS011;49409;55.708;37.522;2022-07-09T12:41:49;7.55;;;5.30;;
63284;SDS011;49409;55.708;37.522;2022-07-09T12:44:15;8.13;;;5.20;;
63284;SDS011;49409;55.708;37.522;2022-07-09T12:46:40;8.82;;;5.28;;
63284;SDS011;49409;55.708;37.522;2022-07-09T12:49:06;7.88;;;5.30;;
63284;SDS011;49409;55.708;37.522;2022-07-09T12:51:36;6.10;;;4.40;;
63284;SDS011;49409;55.708;37.522;2022-07-09T12:54:01;7.05;;;4.72;;
63284;SDS011;49409;55.708;37.522;2022-07-09T12:56:27;7.10;;;4.63;;
63284;SDS011;49409;55.708;37.522;2022-07-09T12:58:53;5.80;;;4.18;;
63284;SDS011;49409;55.708;37.522;2022-07-09T13:01:18;6.93;;;4.70;;
63284;SDS011;49409;55.708;37.522;2022-07-09T13:03:44;7.03;;;4.68;;
63284;SDS011;49409;55.708;37.522;2022-07-09T13:06:09;7.25;;;4.68;;
63284;SDS011;49409;55.708;37.522;2022-07-09T13:08:53;6.93;;;4.13;;
63284;SDS011;49409;55.708;37.522;2022-07-09T13:11:19;7.93;;;4.05;;
63284;SDS011;49409;55.708;37.522;2022-07-09T13:13:45;5.22;;;3.38;;
63284;SDS011;49409;55.708;37.522;2022-07-09T13:16:10;4.68;;;3.33;;
63284;SDS011;49409;55.708;37.522;2022-07-09T13:18:36;6.70;;;3.53;;
63284;SDS011;49409;55.708;37.522;2022-07-09T13:21:02;4.60;;;3.13;;
63284;SDS011;49409;55.708;37.522;2022-07-09T13:23:27;5.28;;;3.38;;
63284;SDS011;49409;55.708;37.522;2022-07-09T13:25:53;5.82;;;3.53;;
63284;SDS011;49409;55.708;37.522;2022-07-09T13:28:18;4.78;;;3.42;;
63284;SDS011;49409;55.708;37.522;2022-07-09T13:30:44;5.47;;;2.92;;
63284;SDS011;49409;55.708;37.522;2022-07-09T13:33:09;5.28;;;3.47;;
63284;SDS011;49409;55.708;37.522;2022-07-09T13:35:35;6.85;;;4.18;;
63284;SDS011;49409;55.708;37.522;2022-07-09T13:38:00;6.80;;;3.55;;
63284;SDS011;49409;55.708;37.522;2022-07-09T13:40:26;5.53;;;3.40;;
63284;SDS011;49409;55.708;37.522;2022-07-09T13:42:51;4.78;;;3.13;;
63284;SDS011;49409;55.708;37.522;2022-07-09T13:45:17;6.57;;;3.33;;
63284;SDS011;49409;55.708;37.522;2022-07-09T13:47:42;5.88;;;3.55;;
63284;SDS011;49409;55.708;37.522;2022-07-09T13:50:08;4.97;;;3.58;;
63284;SDS011;49409;55.708;37.522;2022-07-09T13:52:34;5.10;;;3.58;;
63284;SDS011;49409;55.708;37.522;2022-07-09T13:54:59;6.68;;;3.72;;
63284;SDS011;49409;55.708;37.522;2022-07-09T13:57:25;6.40;;;3.95;;
63284;SDS011;49409;55.708;37.522;2022-07-09T13:59:50;5.95;;;3.70;;
63284;SDS011;49409;55.708;37.522;2022-07-09T14:02:16;6.93;;;4.03;;
63284;SDS011;49409;55.708;37.522;2022-07-09T14:04:41;7.00;;;3.78;;
63284;SDS011;49409;55.708;37.522;2022-07-09T14:07:07;7.07;;;3.58;;
63284;SDS011;49409;55.708;37.522;2022-07-09T14:09:32;7.45;;;3.97;;
63284;SDS011;49409;55.708;37.522;2022-07-09T14:11:58;6.38;;;4.00;;
63284;SDS011;49409;55.708;37.522;2022-07-09T14:14:24;6.78;;;4.03;;
63284;SDS011;49409;55.708;37.522;2022-07-09T14:16:50;8.70;;;3.83;;
63284;SDS011;49409;55.708;37.522;2022-07-09T14:19:15;7.75;;;4.10;;
63284;SDS011;49409;55.708;37.522;2022-07-09T14:21:41;7.07;;;4.50;;
63284;SDS011;49409;55.708;37.522;2022-07-09T14:24:06;6.60;;;3.85;;
63284;SDS011;49409;55.708;37.522;2022-07-09T14:26:32;6.25;;;4.22;;
63284;SDS011;49409;55.708;37.522;2022-07-09T14:28:59;6.72;;;3.97;;
63284;SDS011;49409;55.708;37.522;2022-07-09T14:31:24;6.03;;;3.75;;
63284;SDS011;49409;55.708;37.522;2022-07-09T14:33:50;6.82;;;3.80;;
63284;SDS011;49409;55.708;37.522;2022-07-09T14:36:15;6.63;;;3.92;;
63284;SDS011;49409;55.708;37.522;2022-07-09T14:38:41;4.93;;;3.20;;
63284;SDS011;49409;55.708;37.522;2022-07-09T14:41:06;6.70;;;3.83;;
63284;SDS011;49409;55.708;37.522;2022-07-09T14:43:32;5.10;;;3.42;;
63284;SDS011;49409;55.708;37.522;2022-07-09T14:45:58;5.97;;;3.50;;
63284;SDS011;49409;55.708;37.522;2022-07-09T14:48:23;6.82;;;3.33;;